createdAt,value
2019-06-20T00:02:22.369Z,97344.41
2019-06-20T00:06:27.297Z,97334.43
2019-06-20T00:10:32.252Z,97329.58
2019-06-20T00:14:37.153Z,97335.45
2019-06-20T00:18:42.045Z,97350.30
2019-06-20T00:22:46.949Z,97357.86
2019-06-20T00:26:51.845Z,97368.99
2019-06-20T00:30:56.741Z,97375.06
2019-06-20T00:35:01.646Z,97367.41
2019-06-20T00:39:08.075Z,97371.55
2019-06-20T00:43:17.396Z,97361.86
2019-06-20T00:47:19.650Z,97357.82
2019-06-20T00:51:24.541Z,97364.11
2019-06-20T00:55:29.455Z,97370.36
2019-06-20T00:59:34.337Z,97391.30
2019-06-20T01:03:39.237Z,97402.19
2019-06-20T01:07:44.213Z,97393.33
2019-06-20T01:11:49.134Z,97386.37
2019-06-20T01:15:54.031Z,97373.58
2019-06-20T01:19:58.925Z,97385.97
2019-06-20T01:24:03.901Z,97375.70
2019-06-20T01:28:09.241Z,97365.29
2019-06-20T01:32:14.155Z,97356.89
2019-06-20T01:36:19.047Z,97370.19
2019-06-20T01:40:23.933Z,97367.30
2019-06-20T01:44:28.851Z,97361.48
2019-06-20T01:48:33.756Z,97362.41
2019-06-20T01:52:38.654Z,97361.48
2019-06-20T01:56:43.555Z,97362.77
2019-06-20T02:00:50.821Z,97359.38
2019-06-20T02:04:55.718Z,97367.07
2019-06-20T02:09:00.614Z,97365.34
2019-06-20T02:13:07.279Z,97372.25
2019-06-20T02:17:12.167Z,97374.51
2019-06-20T02:21:17.067Z,97368.63
2019-06-20T02:25:21.952Z,97367.03
2019-06-20T02:29:26.843Z,97376.00
2019-06-20T02:33:31.731Z,97367.33
2019-06-20T02:37:36.620Z,97384.22
2019-06-20T02:41:41.674Z,97400.69
2019-06-20T02:45:46.554Z,97407.13
2019-06-20T02:49:51.453Z,97408.05
2019-06-20T02:53:56.339Z,97412.70
2019-06-20T02:58:01.246Z,97413.12
2019-06-20T03:02:06.131Z,97413.20
2019-06-20T03:06:10.999Z,97411.52
2019-06-20T03:10:17.029Z,97416.95
2019-06-20T03:14:21.921Z,97430.33
2019-06-20T03:18:26.808Z,97440.75
2019-06-20T03:22:31.698Z,97442.06
2019-06-20T03:26:36.577Z,97453.38
2019-06-20T03:30:41.463Z,97445.97
2019-06-20T03:34:46.342Z,97463.81
2019-06-20T03:38:51.236Z,97465.43
2019-06-20T03:42:56.132Z,97472.08
2019-06-20T03:47:01.015Z,97476.08
2019-06-20T03:51:05.938Z,97486.48
2019-06-20T03:55:12.288Z,97494.67
2019-06-20T03:59:17.135Z,97487.94
2019-06-20T04:03:22.033Z,97498.59
2019-06-20T04:07:26.972Z,97493.31
2019-06-20T04:11:31.811Z,97505.00
2019-06-20T04:15:36.709Z,97508.14
2019-06-20T04:19:41.602Z,97500.68
2019-06-20T04:23:46.498Z,97501.77
2019-06-20T04:27:51.542Z,97507.73
2019-06-20T04:31:56.356Z,97515.63
2019-06-20T04:36:01.295Z,97521.89
2019-06-20T04:40:07.866Z,97518.25
2019-06-20T04:44:12.759Z,97529.13
2019-06-20T04:48:17.642Z,97532.53
2019-06-20T04:52:22.532Z,97531.64
2019-06-20T04:56:27.431Z,97536.91
2019-06-20T05:00:32.322Z,97544.38
2019-06-20T05:04:37.216Z,97542.26
2019-06-20T05:08:42.103Z,97545.59
2019-06-20T05:12:47.005Z,97545.42
2019-06-20T05:16:51.900Z,97542.81
2019-06-20T05:20:56.829Z,97535.90
2019-06-20T05:25:02.761Z,97536.20
2019-06-20T05:29:07.647Z,97530.83
2019-06-20T05:33:12.912Z,97528.32
2019-06-20T05:37:17.812Z,97532.37
2019-06-20T05:41:22.711Z,97538.75
2019-06-20T05:45:27.678Z,97538.25
2019-06-20T05:49:32.564Z,97545.64
2019-06-20T05:53:37.536Z,97547.23
2019-06-20T05:57:42.365Z,97545.97
2019-06-20T06:01:47.266Z,97535.41
2019-06-20T06:05:52.163Z,97538.22
2019-06-20T06:09:57.103Z,97539.98
2019-06-20T06:14:01.971Z,97535.80
2019-06-20T06:18:06.877Z,97537.72
2019-06-20T06:22:11.786Z,97538.14
2019-06-20T06:26:16.682Z,97535.34
2019-06-20T06:30:22.355Z,97528.07
2019-06-20T06:34:27.237Z,97528.95
2019-06-20T06:38:32.145Z,97535.38
2019-06-20T06:42:37.047Z,97539.20
2019-06-20T06:46:47.088Z,97539.09
2019-06-20T06:50:48.550Z,97539.84
2019-06-20T06:54:53.446Z,97543.16
2019-06-20T06:58:58.346Z,97557.73
2019-06-20T07:03:03.249Z,97558.91
2019-06-20T07:07:08.160Z,97559.31
2019-06-20T07:11:13.051Z,97567.71
2019-06-20T07:15:18.356Z,97568.19
2019-06-20T07:19:23.274Z,97567.38
2019-06-20T07:23:28.166Z,97575.84
2019-06-20T07:27:33.059Z,97570.88
2019-06-20T07:31:37.956Z,97575.64
2019-06-20T07:35:43.987Z,97567.00
2019-06-20T07:39:48.885Z,97574.09
2019-06-20T07:43:53.860Z,97572.11
2019-06-20T07:47:58.751Z,97578.23
2019-06-20T07:52:03.657Z,97583.27
2019-06-20T07:56:09.495Z,97582.06
2019-06-20T08:00:16.445Z,97583.48
2019-06-20T08:04:21.326Z,97579.81
2019-06-20T08:08:26.225Z,97579.99
2019-06-20T08:12:31.131Z,97579.56
2019-06-20T08:16:36.027Z,97580.42
2019-06-20T08:20:40.914Z,97578.13
2019-06-20T08:24:45.820Z,97574.00
2019-06-20T08:29:07.118Z,97580.05
2019-06-20T08:32:59.653Z,97576.16
2019-06-20T08:37:04.421Z,97583.48
2019-06-20T08:41:09.306Z,97581.76
2019-06-20T08:45:14.564Z,97582.85
2019-06-20T08:49:19.467Z,97583.98
2019-06-20T08:53:24.382Z,97581.30
2019-06-20T08:57:29.260Z,97585.29
2019-06-20T09:01:34.148Z,97584.02
2019-06-20T09:05:39.048Z,97585.54
2019-06-20T09:09:43.952Z,97588.50
2019-06-20T09:13:48.847Z,97589.20
2019-06-20T09:17:55.158Z,97599.57
2019-06-20T09:22:00.580Z,97596.84
2019-06-20T09:26:05.601Z,97594.59
2019-06-20T09:30:11.428Z,97594.16
2019-06-20T09:34:16.329Z,97593.61
2019-06-20T09:38:21.220Z,97600.77
2019-06-20T09:42:26.107Z,97600.09
2019-06-20T09:46:31.566Z,97598.72
2019-06-20T09:50:36.485Z,97595.08
2019-06-20T09:54:41.372Z,97596.78
2019-06-20T09:58:47.855Z,97605.31
2019-06-20T10:02:54.410Z,97592.78
2019-06-20T10:06:59.528Z,97595.59
2019-06-20T10:11:04.415Z,97599.94
2019-06-20T10:15:27.453Z,97609.68
2019-06-20T10:19:32.352Z,97606.33
2019-06-20T10:23:37.251Z,97609.52
2019-06-20T10:27:42.157Z,97611.73
2019-06-20T10:31:47.924Z,97611.60
2019-06-20T10:35:53.644Z,97605.66
2019-06-20T10:39:58.596Z,97602.08
2019-06-20T10:44:04.629Z,97609.21
2019-06-20T10:48:09.597Z,97612.20
2019-06-20T10:52:15.163Z,97615.16
2019-06-20T10:56:20.054Z,97609.72
2019-06-20T11:00:31.489Z,97615.13
2019-06-20T11:04:33.238Z,97618.49
2019-06-20T11:08:38.941Z,97611.34
2019-06-20T11:12:50.214Z,97612.70
2019-06-20T11:16:51.486Z,97613.94
2019-06-20T11:20:56.398Z,97619.95
2019-06-20T11:25:01.272Z,97613.38
2019-06-20T11:29:06.159Z,97605.52
2019-06-20T11:33:11.063Z,97604.59
2019-06-20T11:37:15.970Z,97609.02
2019-06-20T11:41:20.865Z,97605.99
2019-06-20T11:45:25.912Z,97612.56
2019-06-20T11:49:30.803Z,97604.30
2019-06-20T11:53:36.630Z,97604.78
2019-06-20T11:57:41.643Z,97606.66
2019-06-20T12:01:47.251Z,97602.69
2019-06-20T12:05:52.223Z,97605.31
2019-06-20T12:09:57.110Z,97614.41
2019-06-20T12:14:02.008Z,97617.16
2019-06-20T12:18:06.909Z,97612.70
2019-06-20T12:22:11.815Z,97608.41
2019-06-20T12:26:16.716Z,97603.02
2019-06-20T12:30:22.335Z,97596.23
2019-06-20T12:34:27.245Z,97590.64
2019-06-20T12:38:32.163Z,97584.77
2019-06-20T12:42:39.094Z,97579.55
2019-06-20T12:46:44.782Z,97579.50
2019-06-20T12:50:49.733Z,97579.55
2019-06-20T12:54:54.634Z,97576.39
2019-06-20T12:58:59.532Z,97573.77
2019-06-20T13:03:06.147Z,97563.27
2019-06-20T13:07:11.049Z,97554.55
2019-06-20T13:11:15.942Z,97571.37
2019-06-20T13:15:21.180Z,97560.77
2019-06-20T13:19:26.091Z,97568.13
2019-06-20T13:23:30.999Z,97569.64
2019-06-20T13:27:35.907Z,97555.41
2019-06-20T13:31:59.394Z,97549.55
2019-06-20T13:35:48.806Z,97547.09
2019-06-20T13:39:53.751Z,97545.73
2019-06-20T13:43:58.649Z,97535.01
2019-06-20T13:48:03.552Z,97539.34
2019-06-20T13:52:08.457Z,97528.77
2019-06-20T13:56:13.358Z,97525.58
2019-06-20T14:00:21.091Z,97517.71
2019-06-20T14:04:25.992Z,97525.66
2019-06-20T14:08:30.898Z,97529.02
2019-06-20T14:12:35.785Z,97537.63
2019-06-20T14:16:42.718Z,97532.05
2019-06-20T14:20:48.446Z,97520.19
2019-06-20T14:24:53.739Z,97516.47
2019-06-20T14:28:58.651Z,97516.33
2019-06-20T14:33:03.541Z,97522.01
2019-06-20T14:37:08.442Z,97522.91
2019-06-20T14:41:13.408Z,97526.34
2019-06-20T14:45:20.314Z,97562.48
2019-06-20T14:49:25.208Z,97578.25
2019-06-20T14:53:30.082Z,97599.78
2019-06-20T14:57:35.045Z,97630.03
2019-06-20T15:01:39.961Z,97631.13
2019-06-20T15:05:46.497Z,97643.14
2019-06-20T15:09:52.889Z,97643.67
2019-06-20T15:13:58.106Z,97650.75
2019-06-20T15:18:02.995Z,97659.08
2019-06-20T15:22:07.887Z,97644.00
2019-06-20T15:26:12.774Z,97663.30
2019-06-20T15:30:18.209Z,97660.49
2019-06-20T15:34:23.094Z,97646.44
2019-06-20T15:38:27.990Z,97624.04
2019-06-20T15:42:32.965Z,97623.80
2019-06-20T15:46:37.855Z,97622.06
2019-06-20T15:50:43.032Z,97609.28
2019-06-20T15:54:47.930Z,97616.77
2019-06-20T15:58:52.811Z,97610.44
2019-06-20T16:03:09.295Z,97607.28
2019-06-20T16:07:04.283Z,97602.19
2019-06-20T16:11:09.171Z,97608.00
2019-06-20T16:15:17.123Z,97613.97
2019-06-20T16:19:21.997Z,97620.63
2019-06-20T16:23:26.889Z,97630.23
2019-06-20T16:27:31.788Z,97631.55
2019-06-20T16:31:36.697Z,97631.80
2019-06-20T16:35:41.597Z,97625.34
2019-06-20T16:39:46.491Z,97634.55
2019-06-20T16:43:51.395Z,97648.69
2019-06-20T16:47:56.293Z,97652.38
2019-06-20T16:52:01.189Z,97653.53
2019-06-20T16:56:06.170Z,97649.13
2019-06-20T17:00:11.888Z,97647.70
2019-06-20T17:04:16.787Z,97649.80
2019-06-20T17:08:22.069Z,97652.52
2019-06-20T17:12:26.951Z,97660.39
2019-06-20T17:16:31.843Z,97665.29
2019-06-20T17:20:36.729Z,97678.47
2019-06-20T17:24:41.624Z,97673.58
2019-06-20T17:28:46.523Z,97671.63
2019-06-20T17:32:51.416Z,97664.77
2019-06-20T17:36:56.336Z,97663.38
2019-06-20T17:41:01.227Z,97665.95
2019-06-20T17:45:08.758Z,97676.50
2019-06-20T17:49:13.651Z,97672.77
2019-06-20T17:53:18.545Z,97677.14
2019-06-20T17:57:23.440Z,97683.41
2019-06-20T18:01:29.290Z,97692.34
2019-06-20T18:05:34.184Z,97699.59
2019-06-20T18:09:39.083Z,97710.33
2019-06-20T18:13:45.571Z,97722.55
2019-06-20T18:17:50.466Z,97736.56
2019-06-20T18:21:55.350Z,97740.84
2019-06-20T18:26:00.254Z,97747.58
2019-06-20T18:30:11.646Z,97762.45
2019-06-20T18:34:29.196Z,97766.49
2019-06-20T18:38:23.125Z,97764.36
2019-06-20T18:42:28.021Z,97767.75
2019-06-20T18:46:32.912Z,97777.47
2019-06-20T18:50:37.793Z,97779.29
2019-06-20T18:54:42.693Z,97775.63
2019-06-20T18:58:47.580Z,97774.03
2019-06-20T19:02:52.469Z,97781.58
2019-06-20T19:06:57.346Z,97789.84
2019-06-20T19:11:02.238Z,97798.44
2019-06-20T19:15:08.156Z,97793.38
2019-06-20T19:19:13.047Z,97786.09
2019-06-20T19:23:17.971Z,97794.84
2019-06-20T19:27:22.938Z,97796.89
2019-06-20T19:31:27.825Z,97796.56
2019-06-20T19:35:32.714Z,97801.31
2019-06-20T19:39:37.597Z,97805.34
2019-06-20T19:43:42.482Z,97802.95
2019-06-20T19:47:47.367Z,97820.58
2019-06-20T19:51:52.309Z,97818.42
2019-06-20T19:55:57.271Z,97827.47
2019-06-20T20:00:02.299Z,97828.19
2019-06-20T20:04:07.358Z,97822.88
2019-06-20T20:08:12.350Z,97827.22
2019-06-20T20:12:17.266Z,97834.96
2019-06-20T20:16:22.155Z,97833.88
2019-06-20T20:20:27.057Z,97845.09
2019-06-20T20:24:31.949Z,97841.59
2019-06-20T20:28:36.849Z,97851.38
2019-06-20T20:32:41.749Z,97855.96
2019-06-20T20:36:46.665Z,97862.51
2019-06-20T20:40:51.547Z,97859.70
2019-06-20T20:44:56.435Z,97867.45
2019-06-20T20:49:01.347Z,97876.03
2019-06-20T20:53:06.315Z,97879.41
2019-06-20T20:57:11.217Z,97874.80
2019-06-20T21:01:24.715Z,97879.20
2019-06-20T21:05:29.591Z,97886.45
2019-06-20T21:09:35.563Z,97895.84
2019-06-20T21:13:40.488Z,97894.36
2019-06-20T21:17:45.367Z,97896.59
2019-06-20T21:21:50.276Z,97894.98
2019-06-20T21:25:55.172Z,97894.13
2019-06-20T21:30:01.139Z,97885.94
2019-06-20T21:34:06.040Z,97899.78
2019-06-20T21:38:10.939Z,97895.80
2019-06-20T21:42:15.836Z,97909.75
2019-06-20T21:46:20.729Z,97907.47
2019-06-20T21:50:25.637Z,97909.61
2019-06-20T21:54:30.548Z,97909.47
2019-06-20T21:58:35.432Z,97899.09
2019-06-20T22:02:40.400Z,97911.23
2019-06-20T22:06:45.292Z,97910.55
2019-06-20T22:10:50.191Z,97916.60
2019-06-20T22:14:55.096Z,97919.63
2019-06-20T22:18:59.992Z,97928.30
2019-06-20T22:23:05.333Z,97926.22
2019-06-20T22:27:10.245Z,97934.59
2019-06-20T22:31:15.140Z,97929.58
2019-06-20T22:35:20.070Z,97929.38
2019-06-20T22:39:24.942Z,97935.95
2019-06-20T22:43:29.839Z,97934.25
2019-06-20T22:47:34.738Z,97938.45
2019-06-20T22:51:39.631Z,97945.50
2019-06-20T22:55:44.519Z,97953.11
2019-06-20T22:59:49.422Z,97951.25
2019-06-20T23:03:54.316Z,97957.83
2019-06-20T23:07:59.203Z,97960.73
2019-06-20T23:12:04.098Z,97955.66
2019-06-20T23:16:09.031Z,97960.31
2019-06-20T23:20:14.543Z,97961.02
2019-06-20T23:24:19.439Z,97966.47
2019-06-20T23:28:24.366Z,97960.95
2019-06-20T23:32:29.226Z,97963.41
2019-06-20T23:36:34.403Z,97959.06
2019-06-20T23:40:39.297Z,97959.84
2019-06-20T23:44:44.194Z,97956.88
2019-06-20T23:48:49.081Z,97956.50
2019-06-20T23:53:12.034Z,97964.70
2019-06-20T23:57:16.918Z,97968.89
